createdAt,value
2023-01-07T00:02:26.054Z,24.11
2023-01-07T00:07:28.882Z,24.14
2023-01-07T00:12:31.670Z,24.15
2023-01-07T00:17:35.912Z,24.18
2023-01-07T00:22:38.724Z,24.14
2023-01-07T00:27:41.483Z,24.17
2023-01-07T00:32:54.574Z,24.16
2023-01-07T00:37:57.426Z,24.16
2023-01-07T00:43:02.420Z,24.21
2023-01-07T00:48:07.210Z,24.18
2023-01-07T00:53:11.464Z,24.18
2023-01-07T00:58:16.330Z,24.18
2023-01-07T01:03:21.592Z,24.21
2023-01-07T01:08:24.427Z,24.22
2023-01-07T01:13:27.199Z,24.21
2023-01-07T01:18:31.370Z,24.25
2023-01-07T01:23:34.202Z,24.23
2023-01-07T01:28:37.388Z,24.22
2023-01-07T01:33:41.683Z,24.24
2023-01-07T01:38:44.693Z,24.21
2023-01-07T01:43:48.489Z,24.25
2023-01-07T01:48:57.670Z,24.23
2023-01-07T01:54:04.341Z,24.27
2023-01-07T01:59:11.335Z,24.26
2023-01-07T02:04:19.493Z,24.29
2023-01-07T02:09:22.468Z,24.31
2023-01-07T02:14:45.423Z,24.28
2023-01-07T02:20:26.584Z,24.25
2023-01-07T02:26:01.545Z,24.28
2023-01-07T02:31:23.610Z,24.26
2023-01-07T02:36:48.351Z,24.28
2023-01-07T02:41:59.170Z,24.30
2023-01-07T02:47:13.195Z,24.28
2023-01-07T02:52:22.826Z,24.30
2023-01-07T02:58:04.038Z,24.29
2023-01-07T03:03:25.687Z,24.28
2023-01-07T03:08:50.271Z,24.29
2023-01-07T03:14:01.702Z,24.28
2023-01-07T03:19:08.476Z,24.28
2023-01-07T03:24:12.648Z,24.29
2023-01-07T03:29:17.283Z,24.32
2023-01-07T03:34:26.098Z,24.33
2023-01-07T03:39:33.937Z,24.31
2023-01-07T03:44:37.342Z,24.31
2023-01-07T03:49:41.311Z,24.31
2023-01-07T03:54:45.670Z,24.29
2023-01-07T03:59:49.400Z,24.32
2023-01-07T04:04:52.465Z,24.33
2023-01-07T04:09:57.922Z,24.32
2023-01-07T04:15:01.949Z,24.33
2023-01-07T04:20:07.733Z,24.25
2023-01-07T04:25:12.785Z,24.22
2023-01-07T04:30:15.851Z,24.21
2023-01-07T04:35:19.175Z,24.17
2023-01-07T04:40:23.604Z,24.14
2023-01-07T04:45:26.647Z,24.11
2023-01-07T04:50:29.958Z,24.12
2023-01-07T04:55:35.016Z,24.08
2023-01-07T05:00:39.125Z,24.06
2023-01-07T05:05:42.044Z,24.06
2023-01-07T05:10:46.470Z,24.04
2023-01-07T05:15:50.046Z,24.01
2023-01-07T05:20:54.626Z,23.98
2023-01-07T05:25:58.991Z,23.98
2023-01-07T05:31:02.614Z,23.97
2023-01-07T05:36:07.678Z,23.96
2023-01-07T05:41:11.994Z,23.99
2023-01-07T05:46:15.527Z,23.92
2023-01-07T05:51:18.345Z,23.92
2023-01-07T05:56:22.525Z,23.91
2023-01-07T06:01:25.281Z,23.93
2023-01-07T06:06:28.057Z,23.88
2023-01-07T06:11:32.529Z,23.86
2023-01-07T06:16:35.405Z,23.85
2023-01-07T06:21:38.211Z,23.86
2023-01-07T06:26:42.348Z,23.83
2023-01-07T06:31:45.101Z,23.86
2023-01-07T06:36:47.871Z,23.85
2023-01-07T06:41:52.008Z,23.87
2023-01-07T06:46:54.730Z,23.86
2023-01-07T06:51:57.517Z,23.91
2023-01-07T06:57:01.666Z,23.94
2023-01-07T07:02:04.606Z,23.94
2023-01-07T07:07:07.390Z,24.00
2023-01-07T07:12:11.689Z,24.04
2023-01-07T07:17:14.475Z,24.06
2023-01-07T07:22:17.247Z,24.05
2023-01-07T07:27:21.426Z,22.38
2023-01-07T07:32:28.246Z,21.07
2023-01-07T07:37:31.056Z,23.11
2023-01-07T07:43:09.470Z,23.44
2023-01-07T07:47:58.045Z,23.56
2023-01-07T07:53:00.800Z,23.59
2023-01-07T07:58:04.912Z,23.66
2023-01-07T08:03:08.054Z,23.70
2023-01-07T08:08:16.885Z,23.78
2023-01-07T08:13:21.094Z,23.80
2023-01-07T08:18:24.040Z,23.74
2023-01-07T08:23:27.978Z,23.80
2023-01-07T08:28:32.771Z,23.94
2023-01-07T08:33:37.752Z,24.00
2023-01-07T08:38:40.634Z,24.09
2023-01-07T08:43:45.183Z,24.06
2023-01-07T08:48:48.107Z,24.01
2023-01-07T08:53:50.851Z,24.00
2023-01-07T08:58:54.946Z,23.93
2023-01-07T09:03:57.720Z,23.87
2023-01-07T09:09:00.434Z,23.78
2023-01-07T09:14:04.611Z,23.74
2023-01-07T09:19:07.409Z,23.65
2023-01-07T09:24:10.293Z,23.61
2023-01-07T09:29:14.643Z,23.55
2023-01-07T09:34:17.430Z,23.52
2023-01-07T09:39:20.223Z,23.45
2023-01-07T09:44:37.309Z,23.37
2023-01-07T09:49:43.021Z,23.31
2023-01-07T09:54:49.408Z,23.32
2023-01-07T09:59:53.536Z,23.10
2023-01-07T10:05:03.315Z,22.00
2023-01-07T10:10:15.393Z,21.43
2023-01-07T10:15:38.225Z,22.40
2023-01-07T10:20:50.004Z,22.58
2023-01-07T10:25:55.736Z,22.51
2023-01-07T10:31:01.597Z,22.47
2023-01-07T10:36:15.647Z,22.49
2023-01-07T10:41:24.358Z,22.50
2023-01-07T10:46:49.586Z,22.47
2023-01-07T10:52:10.250Z,22.44
2023-01-07T10:57:18.356Z,22.49
2023-01-07T11:02:27.250Z,22.43
2023-01-07T11:07:40.339Z,22.39
2023-01-07T11:12:49.333Z,22.36
2023-01-07T11:17:59.317Z,22.27
2023-01-07T11:23:02.063Z,22.24
2023-01-07T11:28:05.249Z,22.20
2023-01-07T11:33:22.429Z,20.05
2023-01-07T11:38:31.034Z,20.83
2023-01-07T11:43:35.774Z,21.30
2023-01-07T11:48:49.796Z,19.68
2023-01-07T11:53:57.135Z,19.87
2023-01-07T11:59:28.475Z,20.85
2023-01-07T12:04:34.114Z,21.16
2023-01-07T12:09:39.184Z,21.38
2023-01-07T12:14:48.840Z,21.61
2023-01-07T12:20:24.591Z,21.95
2023-01-07T12:25:38.852Z,22.02
2023-01-07T12:31:12.920Z,22.07
2023-01-07T12:36:21.428Z,22.03
2023-01-07T12:41:30.843Z,22.01
2023-01-07T12:46:40.092Z,21.98
2023-01-07T12:51:48.082Z,21.92
2023-01-07T12:56:57.004Z,21.95
2023-01-07T13:02:12.916Z,21.95
2023-01-07T13:07:22.436Z,21.94
2023-01-07T13:12:46.147Z,21.85
2023-01-07T13:17:51.064Z,21.77
2023-01-07T13:22:57.664Z,21.72
2023-01-07T13:28:17.945Z,21.69
2023-01-07T13:33:28.369Z,21.65
2023-01-07T13:38:59.047Z,21.20
2023-01-07T13:44:29.291Z,18.74
2023-01-07T13:49:34.792Z,20.50
2023-01-07T13:54:59.273Z,20.87
2023-01-07T14:00:06.349Z,21.02
2023-01-07T14:05:24.731Z,21.10
2023-01-07T14:10:31.378Z,21.14
2023-01-07T14:15:54.684Z,21.16
2023-01-07T14:21:11.756Z,21.25
2023-01-07T14:26:24.447Z,21.31
2023-01-07T14:31:30.715Z,20.07
2023-01-07T14:37:14.969Z,20.98
2023-01-07T14:42:43.353Z,21.27
2023-01-07T14:47:54.807Z,21.38
2023-01-07T14:53:38.358Z,21.48
2023-01-07T14:59:00.589Z,21.61
2023-01-07T15:04:45.834Z,21.75
2023-01-07T15:10:14.451Z,21.90
2023-01-07T15:15:40.925Z,22.04
2023-01-07T15:20:58.698Z,22.12
2023-01-07T15:26:10.021Z,22.22
2023-01-07T15:31:21.289Z,22.32
2023-01-07T15:36:27.077Z,22.43
2023-01-07T15:41:33.604Z,22.53
2023-01-07T15:46:41.594Z,22.60
2023-01-07T15:51:48.799Z,22.71
2023-01-07T15:56:54.060Z,22.82
2023-01-07T16:02:03.448Z,22.88
2023-01-07T16:07:07.650Z,22.92
2023-01-07T16:12:21.336Z,22.93
2023-01-07T16:17:24.345Z,23.00
2023-01-07T16:22:28.755Z,23.00
2023-01-07T16:27:32.581Z,23.09
2023-01-07T16:32:35.412Z,23.11
2023-01-07T16:37:41.318Z,23.17
2023-01-07T16:42:48.271Z,23.17
2023-01-07T16:48:02.405Z,23.25
2023-01-07T16:53:22.551Z,23.32
2023-01-07T16:58:33.230Z,23.37
2023-01-07T17:03:47.642Z,23.35
2023-01-07T17:08:55.414Z,23.47
2023-01-07T17:13:58.422Z,23.49
2023-01-07T17:19:24.203Z,23.43
2023-01-07T17:24:50.497Z,23.53
2023-01-07T17:29:53.785Z,23.56
2023-01-07T17:35:01.826Z,23.55
2023-01-07T17:40:06.916Z,23.61
2023-01-07T17:45:16.379Z,23.60
2023-01-07T17:50:20.954Z,23.65
2023-01-07T17:55:28.870Z,23.65
2023-01-07T18:00:33.110Z,23.73
2023-01-07T18:05:35.941Z,23.82
2023-01-07T18:10:54.256Z,23.75
2023-01-07T18:15:57.670Z,23.82
2023-01-07T18:21:00.592Z,23.82
2023-01-07T18:26:05.950Z,23.83
2023-01-07T18:31:08.869Z,23.82
2023-01-07T18:36:12.704Z,23.59
2023-01-07T18:41:16.937Z,23.74
2023-01-07T18:46:19.934Z,23.94
2023-01-07T18:51:22.760Z,23.95
2023-01-07T18:56:26.863Z,23.95
2023-01-07T19:01:29.943Z,23.92
2023-01-07T19:06:33.160Z,23.95
2023-01-07T19:11:38.223Z,23.99
2023-01-07T19:16:41.027Z,23.99
2023-01-07T19:21:46.510Z,23.95
2023-01-07T19:26:51.358Z,23.95
2023-01-07T19:31:54.138Z,24.00
2023-01-07T19:36:57.011Z,23.98
2023-01-07T19:42:01.258Z,23.99
2023-01-07T19:47:04.346Z,24.00
2023-01-07T19:52:07.132Z,23.94
2023-01-07T19:57:11.260Z,23.98
2023-01-07T20:02:14.692Z,23.79
2023-01-07T20:07:17.757Z,23.49
2023-01-07T20:12:21.987Z,24.03
2023-01-07T20:17:24.996Z,24.15
2023-01-07T20:22:28.565Z,24.21
2023-01-07T20:27:32.779Z,24.16
2023-01-07T20:32:35.868Z,24.17
2023-01-07T20:37:38.660Z,24.16
2023-01-07T20:42:43.688Z,24.15
2023-01-07T20:47:46.462Z,24.16
2023-01-07T20:52:49.574Z,24.16
2023-01-07T20:57:53.840Z,24.08
2023-01-07T21:02:56.671Z,24.15
2023-01-07T21:08:00.147Z,24.14
2023-01-07T21:13:04.736Z,24.19
2023-01-07T21:18:07.608Z,24.21
2023-01-07T21:23:10.597Z,24.15
2023-01-07T21:28:14.897Z,24.15
2023-01-07T21:33:17.991Z,24.18
2023-01-07T21:38:20.920Z,24.20
2023-01-07T21:43:25.297Z,24.18
2023-01-07T21:48:28.258Z,24.07
2023-01-07T21:53:31.655Z,24.13
2023-01-07T21:58:35.947Z,24.09
2023-01-07T22:03:39.349Z,24.14
2023-01-07T22:08:42.227Z,24.13
2023-01-07T22:13:50.823Z,24.11
2023-01-07T22:18:53.859Z,24.13
2023-01-07T22:23:56.712Z,24.13
2023-01-07T22:29:03.633Z,24.02
2023-01-07T22:34:08.101Z,23.95
2023-01-07T22:39:16.977Z,24.01
2023-01-07T22:44:25.699Z,23.99
2023-01-07T22:49:31.664Z,23.98
2023-01-07T22:54:36.157Z,23.96
2023-01-07T22:59:40.399Z,23.93
2023-01-07T23:04:43.164Z,23.95
2023-01-07T23:09:45.984Z,23.86
2023-01-07T23:14:50.172Z,23.95
2023-01-07T23:19:52.980Z,23.95
2023-01-07T23:24:55.773Z,23.90
2023-01-07T23:29:59.888Z,23.90
2023-01-07T23:35:02.684Z,23.81
2023-01-07T23:40:06.374Z,23.83
2023-01-07T23:45:11.511Z,23.86
2023-01-07T23:50:14.575Z,23.84
2023-01-07T23:55:17.413Z,23.81
